Details From GOOY - Dakar Leopold Sedar Senghor Intl
To SBRF - Recife Intl
Flight Number -
Tags decoded
Created
Modified
Stats Distance 1,740 nm / 3,222 km
Max Altitude 0 ft / 0 m
Waypoints 14
Social Downloads 0
Likes 0
Share VATSIM

Download

Looking for another format? Having issues loading an existing format? Contact us
Advertisement - Login to hide

Notes

Requested: GOOY BOMSA UA302 INIRO TAROT 1120N 0922N 0624N KODOS UL206 BUGAT UR551 AMBET SBRF

Route

GOOY BOMSA UA302 KODOS UL206 BUGAT UR551 AMBET SBRF

ID Type Via Altitude Latitude Longitude Leg Dist Tot Dist Heading (true) Name
O GOOY APT - 0 ft / 0 m 14.73971˚ -17.49023˚ - 0 nm - Dakar Leopold Sedar Senghor Intl
BOMSA FIX - 0 ft / 0 m 13.96889˚ -18.00000˚ 54 nm 54 nm 213° / 213° -
INIRO FIX UA302 (AWY-HI) 0 ft / 0 m 13.33194˚ -18.42778˚ 45 nm 100 nm 213° / 213° -
TAROT FIX UA302 (AWY-HI) 0 ft / 0 m 11.46500˚ -19.66667˚ 133 nm 234 nm 213° / 213° -
LIROL FIX UA302 (AWY-HI) 0 ft / 0 m 6.34500˚ -22.97500˚ 364 nm 599 nm 213° / 212° -
ASOBU FIX UA302 (AWY-HI) 0 ft / 0 m 4.35361˚ -24.22667˚ 141 nm 740 nm 212° / 212° -
KODOS FIX UA302 (AWY-HI) 0 ft / 0 m 1.20300˚ -26.21700˚ 223 nm 963 nm 212° / 212° -
BUTAP FIX UL206 (AWY-HI) 0 ft / 0 m -0.26383˚ -27.13700˚ 103 nm 1067 nm 212° / 212° -
ARUNU FIX UL206 (AWY-HI) 0 ft / 0 m -0.57250˚ -27.32806˚ 21 nm 1089 nm 212° / 212° -
REGIS FIX UL206 (AWY-HI) 0 ft / 0 m -3.05900˚ -28.89067˚ 176 nm 1265 nm 212° / 212° -
BUGAT FIX UL206 (AWY-HI) 0 ft / 0 m -3.61917˚ -29.24317˚ 39 nm 1305 nm 212° / 212° -
SIDIR FIX UR551 (AWY-HI) 0 ft / 0 m -5.69533˚ -31.83517˚ 199 nm 1504 nm 231° / 231° -
AMBET FIX UR551 (AWY-HI) 0 ft / 0 m -7.75950˚ -34.44567˚ 199 nm 1703 nm 231° / 232° -
O SBRF APT - 0 ft / 0 m -8.12790˚ -34.92298˚ 35 nm 1739 nm 232° / 232° Recife Intl

Altitude Profile

Advertisement - Login to hide

Weather


0- 5 10 15 20 25 30 35+ Temperature / ° C

Clouds and Precipitation
Forecast for 2018-05-21 06:00 UTC. Updated 2 hours ago

Ground ~20,000 ft ~40,000 ft Winds

GOOY

Details ICAO GOOY (DKR)
Name Dakar Leopold Sedar Senghor Intl
Region Senegal
Timezone Africa/Dakar (UTC+0.0)
Stats Elevation 85 ft / 26 m (AMSL)
Location 14.739711° -17.490226°
Runways 2
Magnetic Variation 7.298° W

METAR

GOOY 210700Z 36010KT 8000 NSC 20/18 Q1013 NOSIG

Decode

TAF

TAF GOOY 210530Z 2106/2212 34010KT 9999 SCT010= TAF GBYD 210530Z 2106/2212 33010KT 9999 SCT008

Decode

Departure Runways

ID Width Length Bearing (true) Bearing (mag) Surface Threshold Offset Overrun Length
03 98 ft / 30 m 4,921 ft / 1,500 m 22.31° 29.61° Asphalt 0 ft / 0 m 98 ft / 30 m
18 148 ft / 45 m 11,511 ft / 3,509 m 172.57° 179.87° Asphalt 525 ft / 160 m 197 ft / 60 m
21 98 ft / 30 m 4,921 ft / 1,500 m 202.31° 209.61° Asphalt 0 ft / 0 m 1,590 ft / 485 m
36 148 ft / 45 m 11,511 ft / 3,509 m 352.57° 359.87° Asphalt 0 ft / 0 m 197 ft / 60 m

SBRF

Details ICAO SBRF (REC)
Name Recife Intl
Region Brazil
Timezone America/Recife (UTC-3.0)
Stats Elevation 33 ft / 10 m (AMSL)
Location -8.127896° -34.922981°
Runways 2
Magnetic Variation 22.075° W

METAR

SBRF 210700Z 09005KT 9999 SCT018 27/23 Q1011

Decode

TAF

TAF SBRF 210200Z 2106/2206 20007KT 8000 SCT020 TN24/2106Z TX28/2115Z BECMG 2111/2113 12011KT BECMG 2120/2121 13006KT RMK PEI

Decode

Destination Runways

ID Width Length Bearing (true) Bearing (mag) Surface Threshold Offset Overrun Length
01 98 ft / 30 m 4,979 ft / 1,518 m 304.20° 326.27° Asphalt 300 ft / 91 m 0 ft / 0 m
18 148 ft / 45 m 9,915 ft / 3,022 m 161.91° 183.98° Asphalt 1,225 ft / 373 m 0 ft / 0 m
19 98 ft / 30 m 4,979 ft / 1,518 m 124.20° 146.27° Asphalt 300 ft / 91 m 0 ft / 0 m
36 148 ft / 45 m 9,915 ft / 3,022 m 341.91° 3.98° Asphalt 0 ft / 0 m 350 ft / 107 m

Approach Navaids

Runway Type Ident Frequency Range Bearing (true) Bearing (mag) Slope Elevation
18 Localiser IRF 110.30 MHz 18 nm / 33 km 161.91° 183.98° - 33 ft / 10 m (AMSL)
18 Glidescope IRF 110.30 MHz 10 nm / 19 km 161.91° 183.98° 3.00° 33 ft / 10 m (AMSL)

Popular Alternatives